KVCT - Victoria Rgnl, TX, US

Issued at 2321 UTC 31 Oct 2020
Updated at 0019 UTC 01 Nov 2020
Potential Impact None Slight Moderate High
Time2351Z 01/01Z 01/02Z 01/03Z 01/04Z 01/05Z 01/06Z 01/07Z 01/08Z 01/09Z 01/10Z 01/11Z 01/12Z 01/13Z>>
Type OBS PRVL PRVL PRVL PRVL PRVL PRVL PRVL PRVL PRVL
  [TEMP]  
PRVL
  [TEMP]  
PRVL
  [TEMP]  
PRVL
  [TEMP]  
PRVL
VIS 10 >6 >6 >6 >6 >6 >6 >6 4 4
  [0.5]  
4
  [0.5]  
4
  [0.5]  
4
  [0.5]  
4
CIG -- -- -- -- -- -- -- -- -- --
  [3]  
--
  [3]  
--
  [3]  
--
  [3]  
--
Cover CLR SKC SKC SKC SKC SKC SKC SKC FEW FEW
  [OVX]  
FEW
  [OVX]  
FEW
  [OVX]  
FEW
  [OVX]  
FEW
FltCat VFR VFR VFR VFR VFR VFR VFR VFR MVFR MVFR
  [LIFR]  
MVFR
  [LIFR]  
MVFR
  [LIFR]  
MVFR
  [LIFR]  
MVFR
WX -- -- -- -- -- -- -- -- BR BR
  [FG]  
BR
  [FG]  
BR
  [FG]  
BR
  [FG]  
BR
WDir 140 140 140 140 140 140 140 140 VRB VRB
[VRB]
VRB
[VRB]
VRB
[VRB]
VRB
[VRB]
VRB
WSpd 8 8 8 8 8 8 8 8 3 3
  [3]  
3
  [3]  
3
  [3]  
3
  [3]  
3
WGst -- -- -- -- -- -- -- -- -- --
  [--]  
--
  [--]  
--
  [--]  
--
  [--]  
--
Raw TAF
KVCT 312321Z 0100/0124 14008KT P6SM SKC
  FM010800 VRB03KT 4SM BR FEW005
  TEMPO 0109/0113 1/2SM FG VV003
  FM011600 01011KT P6SM SKC


Raw METAR
KVCT 312351Z 14008KT 10SM CLR 19/13 A3011 RMK AO2 SLP197 T01940128 10256 20194 55001
KVCT 312251Z 14010KT 10SM CLR 24/11 A3010 RMK AO2 SLP190 T02390111
KVCT 312151Z 07004KT 10SM CLR 25/09 A3010 RMK AO2 SLP193 T02500089

METAR Board
Radar Display
Forecast Discussion
For situational awareness. Not to be used for flight planning purposes.